createdAt,value
2022-08-22T00:00:56.453Z,57.32
2022-08-22T00:01:56.514Z,56.52
2022-08-22T00:02:47.979Z,92.41
2022-08-22T00:02:52.694Z,92.57
2022-08-22T00:02:59.525Z,87.82
2022-08-22T00:03:02.741Z,92.56
2022-08-22T00:03:06.413Z,75.01
2022-08-22T00:03:17.469Z,56.62
2022-08-22T00:03:57.444Z,56.82
2022-08-22T00:04:56.410Z,57.65
2022-08-22T00:05:56.399Z,56.24
2022-08-22T00:06:56.386Z,56.04
2022-08-22T00:07:56.437Z,54.73
2022-08-22T00:08:56.363Z,55.01
2022-08-22T00:09:56.356Z,55.21
2022-08-22T00:10:56.342Z,54.03
2022-08-22T00:11:56.333Z,55.04
2022-08-22T00:12:56.520Z,54.43
2022-08-22T00:14:01.842Z,54.83
2022-08-22T00:14:56.296Z,54.13
2022-08-22T00:15:56.285Z,54.83
2022-08-22T00:16:56.274Z,54.43
2022-08-22T00:17:56.281Z,54.03
2022-08-22T00:18:56.251Z,54.53
2022-08-22T00:19:56.240Z,53.72
2022-08-22T00:20:56.228Z,53.72
2022-08-22T00:21:56.217Z,54.13
2022-08-22T00:22:56.204Z,54.23
2022-08-22T00:23:56.195Z,52.62
2022-08-22T00:24:56.186Z,52.22
2022-08-22T00:25:56.176Z,51.71
2022-08-22T00:26:56.167Z,51.51
2022-08-22T00:27:56.226Z,51.20
2022-08-22T00:28:56.137Z,51.43
2022-08-22T00:29:56.129Z,51.00
2022-08-22T00:30:56.112Z,51.00
2022-08-22T00:31:56.108Z,50.62
2022-08-22T00:32:56.092Z,50.93
2022-08-22T00:33:56.082Z,50.70
2022-08-22T00:34:56.070Z,50.60
2022-08-22T00:35:56.060Z,50.60
2022-08-22T00:36:56.049Z,50.40
2022-08-22T00:37:56.038Z,50.80
2022-08-22T00:38:56.023Z,51.00
2022-08-22T00:39:56.057Z,50.90
2022-08-22T00:40:56.002Z,50.80
2022-08-22T00:41:55.994Z,51.51
2022-08-22T00:42:55.979Z,50.93
2022-08-22T00:43:55.969Z,50.73
2022-08-22T00:44:55.957Z,50.73
2022-08-22T00:45:55.975Z,50.40
2022-08-22T00:46:55.933Z,49.52
2022-08-22T00:47:55.991Z,50.22
2022-08-22T00:48:55.911Z,49.92
2022-08-22T00:49:55.902Z,49.41
2022-08-22T00:50:55.890Z,49.21
2022-08-22T00:51:55.880Z,49.21
2022-08-22T00:52:56.291Z,48.71
2022-08-22T00:53:55.858Z,48.41
2022-08-22T00:54:55.848Z,48.61
2022-08-22T00:55:55.835Z,47.40
2022-08-22T00:56:55.822Z,47.70
2022-08-22T00:57:55.882Z,47.80
2022-08-22T00:58:55.800Z,47.50
2022-08-22T00:59:55.789Z,47.80
2022-08-22T01:00:55.859Z,47.80
2022-08-22T01:01:55.764Z,48.21
2022-08-22T01:02:55.751Z,47.30
2022-08-22T01:03:55.741Z,46.99
2022-08-22T01:04:55.983Z,46.89
2022-08-22T01:05:55.722Z,46.89
2022-08-22T01:06:55.707Z,47.30
2022-08-22T01:07:55.780Z,47.19
2022-08-22T01:08:55.684Z,47.60
2022-08-22T01:09:55.675Z,47.60
2022-08-22T01:10:55.664Z,47.50
2022-08-22T01:11:55.653Z,47.80
2022-08-22T01:12:55.643Z,48.08
2022-08-22T01:13:55.629Z,48.41
2022-08-22T01:14:55.619Z,47.50
2022-08-22T01:15:55.607Z,47.90
2022-08-22T01:16:55.597Z,47.80
2022-08-22T01:17:55.695Z,47.19
2022-08-22T01:18:55.571Z,46.89
2022-08-22T01:19:55.563Z,47.19
2022-08-22T01:20:55.551Z,46.89
2022-08-22T01:21:55.541Z,46.69
2022-08-22T01:22:55.529Z,46.29
2022-08-22T01:23:55.518Z,46.39
2022-08-22T01:24:55.507Z,46.29
2022-08-22T01:25:55.496Z,45.98
2022-08-22T01:26:55.482Z,45.98
2022-08-22T01:27:55.522Z,45.38
2022-08-22T01:28:55.466Z,46.19
2022-08-22T01:29:55.452Z,46.59
2022-08-22T01:30:55.437Z,45.18
2022-08-22T01:31:55.427Z,45.38
2022-08-22T01:32:57.109Z,45.48
2022-08-22T01:33:55.405Z,45.58
2022-08-22T01:34:55.389Z,45.18
2022-08-22T01:35:55.380Z,45.38
2022-08-22T01:36:55.371Z,44.57
2022-08-22T01:37:55.403Z,44.87
2022-08-22T01:38:55.346Z,45.58
2022-08-22T01:39:55.411Z,45.07
2022-08-22T01:40:55.325Z,46.19
2022-08-22T01:41:55.315Z,45.78
2022-08-22T01:42:55.301Z,45.89
2022-08-22T01:44:00.500Z,46.59
2022-08-22T01:44:55.278Z,46.89
2022-08-22T01:45:55.271Z,46.79
2022-08-22T01:46:55.256Z,46.69
2022-08-22T01:47:55.256Z,46.79
2022-08-22T01:48:55.233Z,46.79
2022-08-22T01:49:55.227Z,47.50
2022-08-22T01:50:55.211Z,47.40
2022-08-22T01:51:55.203Z,46.59
2022-08-22T01:52:55.188Z,46.49
2022-08-22T01:53:55.177Z,46.69
2022-08-22T01:54:55.170Z,47.30
2022-08-22T01:55:55.155Z,46.19
2022-08-22T01:56:55.144Z,46.09
2022-08-22T01:57:55.311Z,45.58
2022-08-22T01:58:55.123Z,45.68
2022-08-22T01:59:55.111Z,45.98
2022-08-22T02:00:55.184Z,45.89
2022-08-22T02:01:55.289Z,45.58
2022-08-22T02:02:55.078Z,46.39
2022-08-22T02:03:55.065Z,45.98
2022-08-22T02:04:55.053Z,46.19
2022-08-22T02:05:55.044Z,45.97
2022-08-22T02:06:55.029Z,45.78
2022-08-22T02:07:55.021Z,46.97
2022-08-22T02:08:55.008Z,46.97
2022-08-22T02:09:55.000Z,47.58
2022-08-22T02:10:54.989Z,46.77
2022-08-22T02:11:54.975Z,47.98
2022-08-22T02:12:54.963Z,48.18
2022-08-22T02:13:54.956Z,47.98
2022-08-22T02:14:54.943Z,49.29
2022-08-22T02:15:54.929Z,49.49
2022-08-22T02:16:54.918Z,50.10
2022-08-22T02:17:54.908Z,50.90
2022-08-22T02:18:54.895Z,51.20
2022-08-22T02:19:54.888Z,50.50
2022-08-22T02:20:54.870Z,50.70
2022-08-22T02:21:54.863Z,50.50
2022-08-22T02:22:54.848Z,50.80
2022-08-22T02:23:55.510Z,49.99
2022-08-22T02:24:54.827Z,50.70
2022-08-22T02:25:54.820Z,50.50
2022-08-22T02:26:54.803Z,49.39
2022-08-22T02:27:54.886Z,49.09
2022-08-22T02:28:57.077Z,51.20
2022-08-22T02:29:54.774Z,49.99
2022-08-22T02:30:54.758Z,49.29
2022-08-22T02:31:54.799Z,49.09
2022-08-22T02:32:54.737Z,49.19
2022-08-22T02:33:54.726Z,48.79
2022-08-22T02:34:54.714Z,48.69
2022-08-22T02:35:54.704Z,48.58
2022-08-22T02:36:54.696Z,48.18
2022-08-22T02:37:54.740Z,47.88
2022-08-22T02:38:54.669Z,48.79
2022-08-22T02:39:54.707Z,48.08
2022-08-22T02:40:54.647Z,47.47
2022-08-22T02:41:54.642Z,46.87
2022-08-22T02:42:54.625Z,46.69
2022-08-22T02:43:54.615Z,47.17
2022-08-22T02:44:54.601Z,47.19
2022-08-22T02:45:54.592Z,46.49
2022-08-22T02:46:54.584Z,45.48
2022-08-22T02:47:54.612Z,45.07
2022-08-22T02:48:54.556Z,45.07
2022-08-22T02:49:54.549Z,44.67
2022-08-22T02:50:54.536Z,44.87
2022-08-22T02:51:54.527Z,45.18
2022-08-22T02:52:54.532Z,45.89
2022-08-22T02:53:54.711Z,44.87
2022-08-22T02:54:54.488Z,45.38
2022-08-22T02:55:54.484Z,45.48
2022-08-22T02:56:54.477Z,45.78
2022-08-22T02:57:54.457Z,44.87
2022-08-22T02:58:57.005Z,44.98
2022-08-22T02:59:54.434Z,44.98
2022-08-22T03:00:54.482Z,45.48
2022-08-22T03:01:54.424Z,46.39
2022-08-22T03:02:54.432Z,45.58
2022-08-22T03:03:54.570Z,46.09
2022-08-22T03:04:54.375Z,46.59
2022-08-22T03:05:57.862Z,46.09
2022-08-22T03:06:55.381Z,46.19
2022-08-22T03:07:54.348Z,45.68
2022-08-22T03:08:54.333Z,45.38
2022-08-22T03:09:54.323Z,45.18
2022-08-22T03:10:54.312Z,44.67
2022-08-22T03:11:54.298Z,44.37
2022-08-22T03:12:57.393Z,44.57
2022-08-22T03:13:54.273Z,45.48
2022-08-22T03:14:54.265Z,44.98
2022-08-22T03:15:54.252Z,44.67
2022-08-22T03:16:54.241Z,44.87
2022-08-22T03:17:54.229Z,45.89
2022-08-22T03:18:54.221Z,45.89
2022-08-22T03:19:54.209Z,45.58
2022-08-22T03:20:54.194Z,45.38
2022-08-22T03:21:54.188Z,45.48
2022-08-22T03:22:54.175Z,46.29
2022-08-22T03:23:54.160Z,45.58
2022-08-22T03:24:54.151Z,46.29
2022-08-22T03:25:54.137Z,45.68
2022-08-22T03:26:54.129Z,45.07
2022-08-22T03:27:54.115Z,44.57
2022-08-22T03:28:59.682Z,44.98
2022-08-22T03:29:55.121Z,45.18
2022-08-22T03:30:54.086Z,45.68
2022-08-22T03:31:54.070Z,45.48
2022-08-22T03:32:54.060Z,45.89
2022-08-22T03:33:54.048Z,45.89
2022-08-22T03:34:54.040Z,46.19
2022-08-22T03:35:54.024Z,45.89
2022-08-22T03:36:54.020Z,46.39
2022-08-22T03:37:54.007Z,46.49
2022-08-22T03:38:53.993Z,46.59
2022-08-22T03:39:54.039Z,46.79
2022-08-22T03:40:53.975Z,46.19
2022-08-22T03:41:53.961Z,45.48
2022-08-22T03:42:53.948Z,45.38
2022-08-22T03:43:53.934Z,46.09
2022-08-22T03:44:53.926Z,46.19
2022-08-22T03:45:53.911Z,45.68
2022-08-22T03:46:53.902Z,44.37
2022-08-22T03:47:53.889Z,43.16
2022-08-22T03:48:53.879Z,43.16
2022-08-22T03:49:57.651Z,43.87
2022-08-22T03:50:54.478Z,43.87
2022-08-22T03:51:53.845Z,43.57
2022-08-22T03:52:53.835Z,43.46
2022-08-22T03:53:53.821Z,43.16
2022-08-22T03:54:53.811Z,42.96
2022-08-22T03:55:53.799Z,42.55
2022-08-22T03:56:54.079Z,42.38
2022-08-22T03:57:54.841Z,42.58
2022-08-22T03:58:53.765Z,42.27
2022-08-22T03:59:53.754Z,42.07
2022-08-22T04:00:56.064Z,41.67
2022-08-22T04:01:53.731Z,41.36
2022-08-22T04:02:53.721Z,40.56
2022-08-22T04:03:53.714Z,39.95
2022-08-22T04:04:53.706Z,40.05
2022-08-22T04:05:53.721Z,40.86
2022-08-22T04:06:56.516Z,39.77
2022-08-22T04:07:53.709Z,38.46
2022-08-22T04:08:53.767Z,38.46
2022-08-22T04:09:53.771Z,37.35
2022-08-22T04:10:53.794Z,37.65
2022-08-22T04:11:53.699Z,37.04
2022-08-22T04:12:53.610Z,39.48
2022-08-22T04:13:53.599Z,35.55
2022-08-22T04:14:53.587Z,35.65
2022-08-22T04:15:53.574Z,34.94
2022-08-22T04:16:53.565Z,35.04
2022-08-22T04:17:53.565Z,34.84
2022-08-22T04:18:53.547Z,35.85
2022-08-22T04:19:53.533Z,34.54
2022-08-22T04:20:53.521Z,33.93
2022-08-22T04:21:53.509Z,33.33
2022-08-22T04:22:53.498Z,33.83
2022-08-22T04:23:53.485Z,34.54
2022-08-22T04:24:53.475Z,33.93
2022-08-22T04:25:53.463Z,35.06
2022-08-22T04:26:53.461Z,32.93
2022-08-22T04:27:53.446Z,32.93
2022-08-22T04:28:53.437Z,32.53
2022-08-22T04:29:53.419Z,31.82
2022-08-22T04:30:53.412Z,32.73
2022-08-22T04:31:53.396Z,33.04
2022-08-22T04:32:53.387Z,33.95
2022-08-22T04:33:53.379Z,35.26
2022-08-22T04:34:53.367Z,34.35
2022-08-22T04:35:53.355Z,33.36
2022-08-22T04:36:53.342Z,35.78
2022-08-22T04:37:53.337Z,32.24
2022-08-22T04:38:53.324Z,31.54
2022-08-22T04:39:53.430Z,30.52
2022-08-22T04:40:53.299Z,29.61
2022-08-22T04:41:53.291Z,28.91
2022-08-22T04:42:53.277Z,29.32
2022-08-22T04:43:53.264Z,29.32
2022-08-22T04:44:53.256Z,31.94
2022-08-22T04:45:53.245Z,29.32
2022-08-22T04:46:53.235Z,28.91
2022-08-22T04:47:54.298Z,28.91
2022-08-22T04:48:53.209Z,28.30
2022-08-22T04:49:53.222Z,27.70
2022-08-22T04:50:53.191Z,28.70
2022-08-22T04:51:53.175Z,28.70
2022-08-22T04:52:53.168Z,27.09
2022-08-22T04:53:53.159Z,27.19
2022-08-22T04:54:53.144Z,27.29
2022-08-22T04:55:53.134Z,26.79
2022-08-22T04:56:53.121Z,26.58
2022-08-22T04:57:53.233Z,26.77
2022-08-22T04:58:53.101Z,27.28
2022-08-22T04:59:53.088Z,27.08
2022-08-22T05:00:53.091Z,27.78
2022-08-22T05:01:53.150Z,28.29
2022-08-22T05:02:53.058Z,28.49
2022-08-22T05:03:53.044Z,28.98
2022-08-22T05:04:53.035Z,29.79
2022-08-22T05:05:53.019Z,30.30
2022-08-22T05:06:53.013Z,31.41
2022-08-22T05:07:53.038Z,31.79
2022-08-22T05:08:53.636Z,33.01
2022-08-22T05:09:52.979Z,34.01
2022-08-22T05:10:52.973Z,35.03
2022-08-22T05:11:52.978Z,36.94
2022-08-22T05:12:52.947Z,36.24
2022-08-22T05:13:52.931Z,36.44
2022-08-22T05:14:54.538Z,36.84
2022-08-22T05:15:52.908Z,38.15
2022-08-22T05:16:52.902Z,39.47
2022-08-22T05:17:53.699Z,38.84
2022-08-22T05:18:52.877Z,39.15
2022-08-22T05:19:52.865Z,41.36
2022-08-22T05:20:52.855Z,40.86
2022-08-22T05:21:52.841Z,40.25
2022-08-22T05:22:52.874Z,42.18
2022-08-22T05:23:52.822Z,42.66
2022-08-22T05:24:52.813Z,44.29
2022-08-22T05:25:52.806Z,43.77
2022-08-22T05:26:52.788Z,43.69
2022-08-22T05:27:53.303Z,44.98
2022-08-22T05:28:53.525Z,45.38
2022-08-22T05:29:52.750Z,44.37
2022-08-22T05:30:52.743Z,44.98
2022-08-22T05:31:52.729Z,44.78
2022-08-22T05:32:52.732Z,45.28
2022-08-22T05:33:52.739Z,44.27
2022-08-22T05:34:52.696Z,44.47
2022-08-22T05:35:57.746Z,44.78
2022-08-22T05:36:52.679Z,42.55
2022-08-22T05:37:52.682Z,42.05
2022-08-22T05:38:52.650Z,42.25
2022-08-22T05:39:52.715Z,41.16
2022-08-22T05:40:52.633Z,40.74
2022-08-22T05:41:52.617Z,40.54
2022-08-22T05:42:52.615Z,42.46
2022-08-22T05:43:52.622Z,44.07
2022-08-22T05:44:52.599Z,43.16
2022-08-22T05:45:52.576Z,44.55
2022-08-22T05:46:52.564Z,45.66
2022-08-22T05:47:52.618Z,46.47
2022-08-22T05:48:52.539Z,48.46
2022-08-22T05:49:52.780Z,49.87
2022-08-22T05:50:52.523Z,48.36
2022-08-22T05:51:52.506Z,50.57
2022-08-22T05:52:52.493Z,52.80
2022-08-22T05:53:52.481Z,51.26
2022-08-22T05:54:52.485Z,52.77
2022-08-22T05:55:52.478Z,54.88
2022-08-22T05:56:52.450Z,53.65
2022-08-22T05:57:52.488Z,56.47
2022-08-22T05:58:52.427Z,57.98
2022-08-22T05:59:52.418Z,57.68
2022-08-22T06:00:52.410Z,59.06
2022-08-22T06:01:52.431Z,59.36
2022-08-22T06:02:52.411Z,59.94
2022-08-22T06:03:52.373Z,60.74
2022-08-22T06:04:52.370Z,60.44
2022-08-22T06:05:52.365Z,61.44
2022-08-22T06:06:52.403Z,63.35
2022-08-22T06:07:52.481Z,63.65
2022-08-22T06:08:52.330Z,62.24
2022-08-22T06:09:52.313Z,64.13
2022-08-22T06:10:52.298Z,64.93
2022-08-22T06:11:52.288Z,65.23
2022-08-22T06:12:52.276Z,65.84
2022-08-22T06:13:52.261Z,65.23
2022-08-22T06:14:52.255Z,65.94
2022-08-22T06:15:52.245Z,66.31
2022-08-22T06:16:52.233Z,66.61
2022-08-22T06:17:52.237Z,68.21
2022-08-22T06:18:52.207Z,68.21
2022-08-22T06:19:52.194Z,68.82
2022-08-22T06:20:52.235Z,66.91
2022-08-22T06:21:52.169Z,66.71
2022-08-22T06:22:52.161Z,69.62
2022-08-22T06:23:52.149Z,69.22
2022-08-22T06:24:52.144Z,70.29
2022-08-22T06:25:52.125Z,71.40
2022-08-22T06:26:52.116Z,70.39
2022-08-22T06:27:52.112Z,71.40
2022-08-22T06:28:55.620Z,72.00
2022-08-22T06:29:52.082Z,71.77
2022-08-22T06:30:52.080Z,72.17
2022-08-22T06:31:52.065Z,72.37
2022-08-22T06:32:59.219Z,72.77
2022-08-22T06:33:52.043Z,71.06
2022-08-22T06:34:52.228Z,70.53
2022-08-22T06:35:52.015Z,73.74
2022-08-22T06:36:52.005Z,75.01
2022-08-22T06:37:51.996Z,75.51
2022-08-22T06:38:52.002Z,77.67
2022-08-22T06:39:52.041Z,79.54
2022-08-22T06:40:51.963Z,79.94
2022-08-22T06:41:51.951Z,79.80
2022-08-22T06:42:51.947Z,80.77
2022-08-22T06:43:51.931Z,83.97
2022-08-22T06:44:51.918Z,83.87
2022-08-22T06:45:51.903Z,83.59
2022-08-22T06:46:51.897Z,84.45
2022-08-22T06:47:53.564Z,88.05
2022-08-22T06:48:51.873Z,87.95
2022-08-22T06:49:51.862Z,88.75
2022-08-22T06:50:51.880Z,87.51
2022-08-22T06:51:51.837Z,89.20
2022-08-22T06:52:51.830Z,90.50
2022-08-22T06:53:51.837Z,89.81
2022-08-22T06:54:51.806Z,88.10
2022-08-22T06:55:51.795Z,88.81
2022-08-22T06:56:51.786Z,89.70
2022-08-22T06:57:51.772Z,89.86
2022-08-22T06:58:51.766Z,90.22
2022-08-22T06:59:51.755Z,91.91
2022-08-22T07:01:11.850Z,91.61
2022-08-22T07:01:51.865Z,90.93
2022-08-22T07:02:51.720Z,92.52
2022-08-22T07:03:51.708Z,91.98
2022-08-22T07:04:51.698Z,92.88
2022-08-22T07:05:51.685Z,92.48
2022-08-22T07:06:51.676Z,92.68
2022-08-22T07:07:51.663Z,93.08
2022-08-22T07:08:51.653Z,92.68
2022-08-22T07:09:51.643Z,92.78
2022-08-22T07:10:51.631Z,92.83
2022-08-22T07:11:51.648Z,92.74
2022-08-22T07:12:51.627Z,92.74
2022-08-22T07:13:51.596Z,92.59
2022-08-22T07:14:51.588Z,92.10
2022-08-22T07:15:51.577Z,92.45
2022-08-22T07:16:51.565Z,91.89
2022-08-22T07:17:51.556Z,92.10
2022-08-22T07:18:51.546Z,92.29
2022-08-22T07:19:51.538Z,92.15
2022-08-22T07:20:51.522Z,91.65
2022-08-22T07:21:51.513Z,91.25
2022-08-22T07:22:54.026Z,91.55
2022-08-22T07:23:51.524Z,91.65
2022-08-22T07:24:51.479Z,92.25
2022-08-22T07:25:51.470Z,91.95
2022-08-22T07:26:51.456Z,91.96
2022-08-22T07:27:52.528Z,90.33
2022-08-22T07:28:57.936Z,86.95
2022-08-22T07:29:51.425Z,87.05
2022-08-22T07:30:51.414Z,87.24
2022-08-22T07:31:51.407Z,87.65
2022-08-22T07:32:51.405Z,88.40
2022-08-22T07:33:51.407Z,86.27
2022-08-22T07:34:51.377Z,80.91
2022-08-22T07:35:53.772Z,82.84
2022-08-22T07:36:51.350Z,82.40
2022-08-22T07:37:51.339Z,81.60
2022-08-22T07:38:51.325Z,81.86
2022-08-22T07:39:51.388Z,81.07
2022-08-22T07:40:51.306Z,80.97
2022-08-22T07:41:51.298Z,77.36
2022-08-22T07:42:51.287Z,72.33
2022-08-22T07:43:51.276Z,73.59
2022-08-22T07:44:51.282Z,72.20
2022-08-22T07:45:51.272Z,68.20
2022-08-22T07:46:51.243Z,69.29
2022-08-22T07:47:51.235Z,68.01
2022-08-22T07:49:08.247Z,66.58
2022-08-22T07:49:51.212Z,67.28
2022-08-22T07:50:51.206Z,66.65
2022-08-22T07:51:51.190Z,65.79
2022-08-22T07:52:51.178Z,67.71
2022-08-22T07:53:51.169Z,69.69
2022-08-22T07:54:51.160Z,70.32
2022-08-22T07:55:51.159Z,69.82
2022-08-22T07:56:51.148Z,68.80
2022-08-22T07:57:51.127Z,66.09
2022-08-22T07:58:51.122Z,64.50
2022-08-22T07:59:51.105Z,67.77
2022-08-22T08:00:51.092Z,65.92
2022-08-22T08:01:51.177Z,64.76
2022-08-22T08:02:51.071Z,65.16
2022-08-22T08:03:51.065Z,64.93
2022-08-22T08:04:51.049Z,64.23
2022-08-22T08:05:51.043Z,64.93
2022-08-22T08:06:51.051Z,61.96
2022-08-22T08:07:51.035Z,61.43
2022-08-22T08:08:51.016Z,60.31
2022-08-22T08:09:51.000Z,60.51
2022-08-22T08:10:50.992Z,58.60
2022-08-22T08:11:50.983Z,54.74
2022-08-22T08:12:56.156Z,55.41
2022-08-22T08:13:51.992Z,55.01
2022-08-22T08:14:50.949Z,56.72
2022-08-22T08:15:50.937Z,55.90
2022-08-22T08:16:50.926Z,54.79
2022-08-22T08:17:50.920Z,54.81
2022-08-22T08:18:50.907Z,53.99
2022-08-22T08:19:50.914Z,54.98
2022-08-22T08:20:51.062Z,52.69
2022-08-22T08:21:50.873Z,53.80
2022-08-22T08:22:50.860Z,53.99
2022-08-22T08:23:50.851Z,55.28
2022-08-22T08:24:50.837Z,54.22
2022-08-22T08:25:53.445Z,54.05
2022-08-22T08:26:50.819Z,54.07
2022-08-22T08:27:50.812Z,54.64
2022-08-22T08:28:50.801Z,54.42
2022-08-22T08:29:50.811Z,53.99
2022-08-22T08:30:50.779Z,55.47
2022-08-22T08:31:50.783Z,56.76
2022-08-22T08:32:50.766Z,54.76
2022-08-22T08:33:50.748Z,55.65
2022-08-22T08:34:50.735Z,56.69
2022-08-22T08:36:03.412Z,58.90
2022-08-22T08:36:50.717Z,58.40
2022-08-22T08:37:50.709Z,58.05
2022-08-22T08:38:50.698Z,56.96
2022-08-22T08:39:50.847Z,57.16
2022-08-22T08:40:50.691Z,57.16
2022-08-22T08:41:50.665Z,57.46
2022-08-22T08:42:50.661Z,57.40
2022-08-22T08:43:50.646Z,55.60
2022-08-22T08:44:50.635Z,54.28
2022-08-22T08:45:50.630Z,54.38
2022-08-22T08:46:55.463Z,54.97
2022-08-22T08:47:50.607Z,53.27
2022-08-22T08:48:50.592Z,53.89
2022-08-22T08:49:50.655Z,54.19
2022-08-22T08:50:50.594Z,54.26
2022-08-22T08:51:50.576Z,54.26
2022-08-22T08:52:53.069Z,53.81
2022-08-22T08:53:50.543Z,53.02
2022-08-22T08:54:50.529Z,52.50
2022-08-22T08:55:50.524Z,52.83
2022-08-22T08:56:50.513Z,54.03
2022-08-22T08:57:50.501Z,54.23
2022-08-22T08:58:50.864Z,54.88
2022-08-22T08:59:50.483Z,56.61
2022-08-22T09:00:50.570Z,57.28
2022-08-22T09:01:50.471Z,57.24
2022-08-22T09:02:50.499Z,54.72
2022-08-22T09:03:51.275Z,54.40
2022-08-22T09:04:50.436Z,52.97
2022-08-22T09:05:50.424Z,52.48
2022-08-22T09:06:52.781Z,52.19
2022-08-22T09:07:51.446Z,50.88
2022-08-22T09:08:55.542Z,50.71
2022-08-22T09:10:51.401Z,52.04
2022-08-22T09:11:50.361Z,52.43
2022-08-22T09:12:56.508Z,53.02
2022-08-22T09:13:50.386Z,52.23
2022-08-22T09:14:50.363Z,51.59
2022-08-22T09:16:51.898Z,48.69
2022-08-22T09:17:50.303Z,48.69
2022-08-22T09:18:50.291Z,49.11
2022-08-22T09:19:50.280Z,49.50
2022-08-22T09:20:50.272Z,49.38
2022-08-22T09:21:50.265Z,49.13
2022-08-22T09:22:50.699Z,47.54
2022-08-22T09:23:53.280Z,47.17
2022-08-22T09:24:50.297Z,48.10
2022-08-22T09:25:50.239Z,48.69
2022-08-22T09:26:50.213Z,48.10
2022-08-22T09:27:50.205Z,48.37
2022-08-22T09:28:50.197Z,47.76
2022-08-22T09:30:54.197Z,47.44
2022-08-22T09:31:52.073Z,47.13
2022-08-22T09:32:50.150Z,46.53
2022-08-22T09:33:50.141Z,46.97
2022-08-22T09:34:50.130Z,46.09
2022-08-22T09:35:50.124Z,46.88
2022-08-22T09:36:50.138Z,46.50
2022-08-22T09:37:50.103Z,46.60
2022-08-22T09:38:50.093Z,46.80
2022-08-22T09:39:50.167Z,46.97
2022-08-22T09:40:16.318Z,51.07
2022-08-22T09:40:16.383Z,51.52
2022-08-22T09:40:16.764Z,47.54
2022-08-22T09:40:50.073Z,46.06
2022-08-22T09:41:51.748Z,45.34
2022-08-22T09:42:50.050Z,45.24
2022-08-22T09:43:50.046Z,45.12
2022-08-22T09:44:50.025Z,45.19
2022-08-22T09:45:50.239Z,44.51
2022-08-22T09:46:50.018Z,44.35
2022-08-22T09:47:50.024Z,45.36
2022-08-22T09:48:49.990Z,46.75
2022-08-22T09:49:49.988Z,46.22
2022-08-22T09:50:52.601Z,46.53
2022-08-22T09:51:49.969Z,47.58
2022-08-22T09:52:49.953Z,47.34
2022-08-22T09:53:49.945Z,46.53
2022-08-22T09:54:49.935Z,46.59
2022-08-22T09:55:50.174Z,45.02
2022-08-22T09:56:49.915Z,44.62
2022-08-22T09:57:49.925Z,44.82
2022-08-22T09:58:49.898Z,44.41
2022-08-22T09:59:49.909Z,44.19
2022-08-22T10:00:55.177Z,44.07
2022-08-22T10:01:49.868Z,42.68
2022-08-22T10:02:50.383Z,43.46
2022-08-22T10:03:49.847Z,42.48
2022-08-22T10:04:49.837Z,43.07
2022-08-22T10:05:49.826Z,42.56
2022-08-22T10:06:49.817Z,42.88
2022-08-22T10:07:52.730Z,43.76
2022-08-22T10:08:49.806Z,43.17
2022-08-22T10:09:49.818Z,43.17
2022-08-22T10:10:49.818Z,42.99
2022-08-22T10:11:49.773Z,43.51
2022-08-22T10:12:49.761Z,43.27
2022-08-22T10:13:57.257Z,43.27
2022-08-22T10:14:51.146Z,43.03
2022-08-22T10:15:49.733Z,43.23
2022-08-22T10:16:49.721Z,42.71
2022-08-22T10:17:49.713Z,42.09
2022-08-22T10:18:52.878Z,42.05
2022-08-22T10:19:49.692Z,42.78
2022-08-22T10:20:49.690Z,44.07
2022-08-22T10:21:49.690Z,43.56
2022-08-22T10:22:49.662Z,43.17
2022-08-22T10:23:49.657Z,43.37
2022-08-22T10:24:49.644Z,43.90
2022-08-22T10:25:49.635Z,45.43
2022-08-22T10:26:49.625Z,45.83
2022-08-22T10:27:49.616Z,46.06
2022-08-22T10:28:49.603Z,47.12
2022-08-22T10:29:49.597Z,46.34
2022-08-22T10:30:49.586Z,44.43
2022-08-22T10:31:58.909Z,44.23
2022-08-22T10:32:50.593Z,42.88
2022-08-22T10:33:49.564Z,42.03
2022-08-22T10:34:49.548Z,41.21
2022-08-22T10:35:49.541Z,40.97
2022-08-22T10:36:49.528Z,41.89
2022-08-22T10:37:50.385Z,42.58
2022-08-22T10:38:49.506Z,41.07
2022-08-22T10:39:49.523Z,40.78
2022-08-22T10:40:49.486Z,41.50
2022-08-22T10:41:49.478Z,41.56
2022-08-22T10:42:49.463Z,40.37
2022-08-22T10:43:49.485Z,39.76
2022-08-22T10:44:50.466Z,40.48
2022-08-22T10:45:49.434Z,40.47
2022-08-22T10:46:49.420Z,41.19
2022-08-22T10:47:49.414Z,42.19
2022-08-22T10:48:49.409Z,42.70
2022-08-22T10:49:51.292Z,42.62
2022-08-22T10:50:49.382Z,41.70
2022-08-22T10:51:49.376Z,42.80
2022-08-22T10:52:49.366Z,41.89
2022-08-22T10:53:49.359Z,41.19
2022-08-22T10:54:49.383Z,41.58
2022-08-22T10:55:49.352Z,41.35
2022-08-22T10:56:49.331Z,41.64
2022-08-22T10:57:52.688Z,42.13
2022-08-22T10:58:49.311Z,41.96
2022-08-22T10:59:49.311Z,42.15
2022-08-22T11:00:49.981Z,42.03
2022-08-22T11:01:49.429Z,41.98
2022-08-22T11:02:49.391Z,42.05
2022-08-22T11:03:49.376Z,41.47
2022-08-22T11:04:49.382Z,41.25
2022-08-22T11:05:50.940Z,41.94
2022-08-22T11:06:49.280Z,41.72
2022-08-22T11:07:50.275Z,41.64
2022-08-22T11:08:49.210Z,42.57
2022-08-22T11:09:49.202Z,44.26
2022-08-22T11:10:49.203Z,44.35
2022-08-22T11:11:49.180Z,43.39
2022-08-22T11:12:49.169Z,44.30
2022-08-22T11:13:49.736Z,43.27
2022-08-22T11:14:49.152Z,43.41
2022-08-22T11:15:49.142Z,44.73
2022-08-22T11:16:55.236Z,45.50
2022-08-22T11:17:53.983Z,44.87
2022-08-22T11:18:51.490Z,43.96
2022-08-22T11:19:49.134Z,43.45
2022-08-22T11:20:49.089Z,43.33
2022-08-22T11:21:50.878Z,41.84
2022-08-22T11:22:49.071Z,42.02
2022-08-22T11:23:49.059Z,42.50
2022-08-22T11:24:55.724Z,40.74
2022-08-22T11:25:52.403Z,41.05
2022-08-22T11:26:49.029Z,40.98
2022-08-22T11:27:49.025Z,41.27
2022-08-22T11:28:49.024Z,40.98
2022-08-22T11:29:49.008Z,41.86
2022-08-22T11:30:50.386Z,41.08
2022-08-22T11:31:51.485Z,41.27
2022-08-22T11:32:48.966Z,41.08
2022-08-22T11:33:48.959Z,41.27
2022-08-22T11:34:48.945Z,41.17
2022-08-22T11:35:48.932Z,41.47
2022-08-22T11:36:50.235Z,41.37
2022-08-22T11:37:48.915Z,42.15
2022-08-22T11:38:49.930Z,40.98
2022-08-22T11:39:48.957Z,42.15
2022-08-22T11:40:48.931Z,42.65
2022-08-22T11:41:52.500Z,41.56
2022-08-22T11:42:48.867Z,40.90
2022-08-22T11:43:48.853Z,41.39
2022-08-22T11:44:50.961Z,42.18
2022-08-22T11:45:48.830Z,43.08
2022-08-22T11:46:48.824Z,42.29
2022-08-22T11:47:48.812Z,42.79
2022-08-22T11:48:48.856Z,42.80
2022-08-22T11:49:49.106Z,42.61
2022-08-22T11:50:48.793Z,43.14
2022-08-22T11:51:49.537Z,43.14
2022-08-22T11:52:51.684Z,42.94
2022-08-22T11:53:48.750Z,44.12
2022-08-22T11:54:48.743Z,43.90
2022-08-22T11:55:48.735Z,43.12
2022-08-22T11:56:48.722Z,44.98
2022-08-22T11:57:48.714Z,44.10
2022-08-22T11:58:48.704Z,42.92
2022-08-22T11:59:48.689Z,43.02
2022-08-22T12:00:48.680Z,43.51
2022-08-22T12:01:48.734Z,42.43
2022-08-22T12:02:48.684Z,42.71
2022-08-22T12:03:55.886Z,43.18
2022-08-22T12:04:49.664Z,42.19
2022-08-22T12:05:48.624Z,41.78
2022-08-22T12:06:49.733Z,41.09
2022-08-22T12:07:50.608Z,41.51
2022-08-22T12:08:48.593Z,41.61
2022-08-22T12:09:48.585Z,41.11
2022-08-22T12:10:48.576Z,41.43
2022-08-22T12:11:48.568Z,41.41
2022-08-22T12:12:48.554Z,41.94
2022-08-22T12:13:48.552Z,42.92
2022-08-22T12:14:48.552Z,41.47
2022-08-22T12:15:53.748Z,41.47
2022-08-22T12:16:48.511Z,41.06
2022-08-22T12:17:51.136Z,40.43
2022-08-22T12:18:52.959Z,40.51
2022-08-22T12:20:12.702Z,41.11
2022-08-22T12:20:49.507Z,40.72
2022-08-22T12:21:49.589Z,41.21
2022-08-22T12:22:49.793Z,40.11
2022-08-22T12:23:49.294Z,41.00
2022-08-22T12:24:48.451Z,40.94
2022-08-22T12:25:48.449Z,41.53
2022-08-22T12:26:48.409Z,41.21
2022-08-22T12:27:50.630Z,41.80
2022-08-22T12:28:48.390Z,41.49
2022-08-22T12:29:48.378Z,40.01
2022-08-22T12:30:48.367Z,40.82
2022-08-22T12:31:48.357Z,40.72
2022-08-22T12:32:48.973Z,40.72
2022-08-22T12:33:48.379Z,41.02
2022-08-22T12:34:48.368Z,40.92
2022-08-22T12:35:48.319Z,40.55
2022-08-22T12:36:48.336Z,41.94
2022-08-22T12:38:03.032Z,42.55
2022-08-22T12:38:49.316Z,42.33
2022-08-22T12:39:48.346Z,41.67
2022-08-22T12:40:48.267Z,43.14
2022-08-22T12:41:48.411Z,41.67
2022-08-22T12:42:48.247Z,41.67
2022-08-22T12:43:49.612Z,43.80
2022-08-22T12:44:48.226Z,41.45
2022-08-22T12:45:50.768Z,41.43
2022-08-22T12:46:48.218Z,42.19
2022-08-22T12:47:48.192Z,40.03